This is the latest recevied weather packets stored in our database for station/object W3TMB. If no packets are shown the sender has not sent any weather packets the latest 10 day(s).
| Time | Temp. | Humidity | Pressure | Rain* | Wind** | Luminosity | Snow |
|---|---|---|---|---|---|---|---|
| 1778162365 | 12.78° C | 57% | 1010.4 hPa | 0 mm | - | 670 W/m² | - |
| 1778162061 | 12.22° C | 61% | 1010.2 hPa | 0 mm | - | 652 W/m² | - |
| 1778161759 | 12.22° C | 62% | 1010.6 hPa | 0 mm | - | 618 W/m² | - |
| 1778161455 | 12.78° C | 60% | 1010.4 hPa | 0 mm | - | 511 W/m² | - |
| 1778161151 | 12.22° C | 65% | 1010.6 hPa | 0 mm | - | 462 W/m² | - |
| 1778160847 | 12.78° C | 63% | 1010.4 hPa | 0 mm | - | 499 W/m² | - |
| 1778160546 | 13.33° C | 63% | 1010.8 hPa | 0 mm | - | 483 W/m² | - |
| 1778160241 | 11.67° C | 66% | 1010.8 hPa | 0 mm | - | 484 W/m² | - |
| 1778159939 | 12.22° C | 64% | 1010.9 hPa | 0 mm | - | 487 W/m² | - |
| 1778159635 | 12.22° C | 64% | 1010.7 hPa | 0 mm | - | 468 W/m² | - |
| 1778159332 | 11.67° C | 66% | 1010.9 hPa | 0 mm | - | 413 W/m² | - |
| 1778159029 | 12.78° C | 66% | 1010.8 hPa | 0 mm | - | 376 W/m² | - |
| 1778158728 | 11.67° C | 67% | 1010.6 hPa | 0 mm | - | 381 W/m² | - |
| 1778158425 | 11.11° C | 70% | 1010.7 hPa | 0 mm | - | 373 W/m² | - |
| 1778158123 | 11.67° C | 69% | 1010.8 hPa | 0 mm | - | 337 W/m² | - |
| 1778157819 | 10.56° C | 71% | 1010.9 hPa | 0 mm | - | 319 W/m² | - |
| 1778157518 | 10.56° C | 71% | 1010.8 hPa | 0 mm | - | 285 W/m² | - |
| 1778157214 | 10.56° C | 71% | 1010.8 hPa | 0 mm | - | 260 W/m² | - |
| 1778156910 | 10.56° C | 71% | 1010.8 hPa | 0 mm | - | 249 W/m² | - |
| 1778156606 | 10° C | 72% | 1011.1 hPa | 0 mm | - | 258 W/m² | - |
| 1778156302 | 9.44° C | 73% | 1010.6 hPa | 0 mm | - | 231 W/m² | - |
| 1778155998 | 10° C | 76% | 1010.8 hPa | 0 mm | - | 241 W/m² | - |
| 1778155695 | 8.89° C | 77% | 1010.7 hPa | 0 mm | - | 210 W/m² | - |
| 1778155391 | 8.33° C | 79% | 1010.8 hPa | 0 mm | - | 196 W/m² | - |
| 1778155087 | 7.78° C | 80% | 1010.7 hPa | 0 mm | - | 170 W/m² | - |
* Rain latest hour (hover to see other rain measurements)
** Current wind speed in m/s (hover to see current wind gust speed)